sensor_id;sensor_type;location;lat;lon;timestamp;P1;durP1;ratioP1;P2;durP2;ratioP2
67041;SDS011;53949;47.790;18.750;2022-10-26T00:01:55;4.20;;;2.85;;
67041;SDS011;53949;47.790;18.750;2022-10-26T00:04:59;5.90;;;2.95;;
67041;SDS011;53949;47.790;18.750;2022-10-26T00:08:02;3.30;;;2.30;;
67041;SDS011;53949;47.790;18.750;2022-10-26T00:11:05;7.95;;;3.03;;
67041;SDS011;53949;47.790;18.750;2022-10-26T00:14:08;5.03;;;2.45;;
67041;SDS011;53949;47.790;18.750;2022-10-26T00:17:12;3.62;;;2.05;;
67041;SDS011;53949;47.790;18.750;2022-10-26T00:20:14;4.18;;;2.30;;
67041;SDS011;53949;47.790;18.750;2022-10-26T00:23:18;1.87;;;1.75;;
67041;SDS011;53949;47.790;18.750;2022-10-26T00:26:21;3.67;;;1.95;;
67041;SDS011;53949;47.790;18.750;2022-10-26T00:29:25;5.40;;;2.50;;
67041;SDS011;53949;47.790;18.750;2022-10-26T00:32:28;3.62;;;2.33;;
67041;SDS011;53949;47.790;18.750;2022-10-26T00:35:31;4.50;;;2.20;;
67041;SDS011;53949;47.790;18.750;2022-10-26T00:38:48;2.50;;;2.30;;
67041;SDS011;53949;47.790;18.750;2022-10-26T00:41:52;2.28;;;2.05;;
67041;SDS011;53949;47.790;18.750;2022-10-26T00:44:58;3.25;;;2.08;;
67041;SDS011;53949;47.790;18.750;2022-10-26T00:48:04;4.00;;;2.72;;
67041;SDS011;53949;47.790;18.750;2022-10-26T00:51:12;3.15;;;2.22;;
67041;SDS011;53949;47.790;18.750;2022-10-26T00:54:37;3.55;;;2.15;;
67041;SDS011;53949;47.790;18.750;2022-10-26T00:57:40;7.07;;;3.33;;
67041;SDS011;53949;47.790;18.750;2022-10-26T01:00:43;4.03;;;2.53;;
67041;SDS011;53949;47.790;18.750;2022-10-26T01:03:46;5.90;;;2.78;;
67041;SDS011;53949;47.790;18.750;2022-10-26T01:06:50;5.10;;;3.30;;
67041;SDS011;53949;47.790;18.750;2022-10-26T01:09:53;3.45;;;2.90;;
67041;SDS011;53949;47.790;18.750;2022-10-26T01:12:57;3.95;;;3.12;;
67041;SDS011;53949;47.790;18.750;2022-10-26T01:22:50;6.22;;;2.50;;
67041;SDS011;53949;47.790;18.750;2022-10-26T01:26:28;6.80;;;2.58;;
67041;SDS011;53949;47.790;18.750;2022-10-26T01:33:17;4.15;;;2.45;;
67041;SDS011;53949;47.790;18.750;2022-10-26T01:42:47;4.05;;;3.00;;
67041;SDS011;53949;47.790;18.750;2022-10-26T01:45:53;3.05;;;2.70;;
67041;SDS011;53949;47.790;18.750;2022-10-26T01:48:58;3.37;;;2.60;;
67041;SDS011;53949;47.790;18.750;2022-10-26T01:52:04;3.33;;;2.37;;
67041;SDS011;53949;47.790;18.750;2022-10-26T01:58:42;3.75;;;2.58;;
67041;SDS011;53949;47.790;18.750;2022-10-26T02:08:09;4.15;;;2.67;;
67041;SDS011;53949;47.790;18.750;2022-10-26T02:11:22;4.18;;;2.50;;
67041;SDS011;53949;47.790;18.750;2022-10-26T02:14:38;7.53;;;2.50;;
67041;SDS011;53949;47.790;18.750;2022-10-26T02:18:03;3.78;;;2.42;;
67041;SDS011;53949;47.790;18.750;2022-10-26T02:21:11;4.28;;;2.42;;
67041;SDS011;53949;47.790;18.750;2022-10-26T02:24:17;4.72;;;2.80;;
67041;SDS011;53949;47.790;18.750;2022-10-26T02:27:22;3.77;;;2.23;;
67041;SDS011;53949;47.790;18.750;2022-10-26T02:30:28;2.42;;;2.00;;
67041;SDS011;53949;47.790;18.750;2022-10-26T02:33:32;3.80;;;2.72;;
67041;SDS011;53949;47.790;18.750;2022-10-26T02:36:40;4.87;;;3.00;;
67041;SDS011;53949;47.790;18.750;2022-10-26T02:39:45;3.30;;;2.12;;
67041;SDS011;53949;47.790;18.750;2022-10-26T02:42:51;2.90;;;2.62;;
67041;SDS011;53949;47.790;18.750;2022-10-26T02:46:10;4.15;;;2.55;;
67041;SDS011;53949;47.790;18.750;2022-10-26T02:49:16;5.32;;;2.60;;
67041;SDS011;53949;47.790;18.750;2022-10-26T02:52:27;4.50;;;2.62;;
67041;SDS011;53949;47.790;18.750;2022-10-26T02:55:37;3.58;;;2.70;;
67041;SDS011;53949;47.790;18.750;2022-10-26T02:58:45;4.62;;;2.70;;
67041;SDS011;53949;47.790;18.750;2022-10-26T03:01:51;5.80;;;3.30;;
67041;SDS011;53949;47.790;18.750;2022-10-26T03:04:55;4.70;;;3.10;;
67041;SDS011;53949;47.790;18.750;2022-10-26T03:07:58;5.22;;;3.20;;
67041;SDS011;53949;47.790;18.750;2022-10-26T03:11:02;6.97;;;4.77;;
67041;SDS011;53949;47.790;18.750;2022-10-26T03:14:05;12.70;;;6.68;;
67041;SDS011;53949;47.790;18.750;2022-10-26T03:17:08;11.57;;;5.75;;
67041;SDS011;53949;47.790;18.750;2022-10-26T03:20:11;13.62;;;6.15;;
67041;SDS011;53949;47.790;18.750;2022-10-26T03:23:15;6.93;;;5.15;;
67041;SDS011;53949;47.790;18.750;2022-10-26T03:26:18;6.82;;;4.10;;
67041;SDS011;53949;47.790;18.750;2022-10-26T03:29:22;4.72;;;3.47;;
67041;SDS011;53949;47.790;18.750;2022-10-26T03:32:25;4.80;;;3.78;;
67041;SDS011;53949;47.790;18.750;2022-10-26T03:35:28;3.95;;;3.00;;
67041;SDS011;53949;47.790;18.750;2022-10-26T03:38:31;8.93;;;5.07;;
67041;SDS011;53949;47.790;18.750;2022-10-26T03:41:34;8.55;;;5.87;;
67041;SDS011;53949;47.790;18.750;2022-10-26T03:44:38;10.18;;;6.22;;
67041;SDS011;53949;47.790;18.750;2022-10-26T03:47:43;10.13;;;6.18;;
67041;SDS011;53949;47.790;18.750;2022-10-26T03:50:48;11.00;;;6.15;;
67041;SDS011;53949;47.790;18.750;2022-10-26T03:53:50;10.55;;;5.85;;
67041;SDS011;53949;47.790;18.750;2022-10-26T03:56:55;7.90;;;5.05;;
67041;SDS011;53949;47.790;18.750;2022-10-26T03:59:58;6.70;;;4.15;;
67041;SDS011;53949;47.790;18.750;2022-10-26T04:03:01;4.47;;;3.60;;
67041;SDS011;53949;47.790;18.750;2022-10-26T04:06:05;4.57;;;3.17;;
67041;SDS011;53949;47.790;18.750;2022-10-26T04:09:09;5.60;;;3.10;;
67041;SDS011;53949;47.790;18.750;2022-10-26T04:12:12;5.80;;;3.55;;
67041;SDS011;53949;47.790;18.750;2022-10-26T04:15:15;6.47;;;3.17;;
67041;SDS011;53949;47.790;18.750;2022-10-26T04:18:19;8.15;;;4.85;;
67041;SDS011;53949;47.790;18.750;2022-10-26T04:21:22;15.15;;;8.25;;
67041;SDS011;53949;47.790;18.750;2022-10-26T04:24:25;12.90;;;6.75;;
67041;SDS011;53949;47.790;18.750;2022-10-26T04:27:28;11.82;;;7.18;;
67041;SDS011;53949;47.790;18.750;2022-10-26T04:30:32;10.90;;;5.72;;
67041;SDS011;53949;47.790;18.750;2022-10-26T04:33:36;11.85;;;7.80;;
67041;SDS011;53949;47.790;18.750;2022-10-26T04:36:39;11.73;;;6.50;;
67041;SDS011;53949;47.790;18.750;2022-10-26T04:39:42;10.73;;;6.85;;
67041;SDS011;53949;47.790;18.750;2022-10-26T04:42:48;7.75;;;5.82;;
67041;SDS011;53949;47.790;18.750;2022-10-26T04:45:55;9.77;;;4.32;;
67041;SDS011;53949;47.790;18.750;2022-10-26T04:48:59;6.90;;;4.12;;
67041;SDS011;53949;47.790;18.750;2022-10-26T04:52:04;4.15;;;3.40;;
67041;SDS011;53949;47.790;18.750;2022-10-26T04:58:10;4.80;;;3.53;;
67041;SDS011;53949;47.790;18.750;2022-10-26T05:01:14;10.30;;;4.62;;
67041;SDS011;53949;47.790;18.750;2022-10-26T05:04:17;5.70;;;3.58;;
67041;SDS011;53949;47.790;18.750;2022-10-26T05:07:22;6.12;;;3.70;;
67041;SDS011;53949;47.790;18.750;2022-10-26T05:10:26;5.82;;;4.03;;
67041;SDS011;53949;47.790;18.750;2022-10-26T05:13:31;6.50;;;4.00;;
67041;SDS011;53949;47.790;18.750;2022-10-26T05:16:34;7.35;;;4.70;;
67041;SDS011;53949;47.790;18.750;2022-10-26T05:19:37;7.35;;;4.15;;
67041;SDS011;53949;47.790;18.750;2022-10-26T05:22:40;6.62;;;3.75;;
67041;SDS011;53949;47.790;18.750;2022-10-26T05:25:44;5.57;;;3.58;;
67041;SDS011;53949;47.790;18.750;2022-10-26T05:28:47;5.35;;;3.10;;
67041;SDS011;53949;47.790;18.750;2022-10-26T05:31:50;5.68;;;3.90;;
67041;SDS011;53949;47.790;18.750;2022-10-26T05:34:54;4.85;;;3.60;;
67041;SDS011;53949;47.790;18.750;2022-10-26T05:37:57;4.97;;;3.45;;
67041;SDS011;53949;47.790;18.750;2022-10-26T05:41:00;5.20;;;3.75;;
67041;SDS011;53949;47.790;18.750;2022-10-26T05:44:03;6.95;;;3.83;;
67041;SDS011;53949;47.790;18.750;2022-10-26T05:47:07;4.10;;;3.70;;
67041;SDS011;53949;47.790;18.750;2022-10-26T05:50:11;3.77;;;3.43;;
67041;SDS011;53949;47.790;18.750;2022-10-26T05:53:15;4.55;;;3.00;;
67041;SDS011;53949;47.790;18.750;2022-10-26T05:56:20;3.43;;;2.70;;
67041;SDS011;53949;47.790;18.750;2022-10-26T05:59:35;6.53;;;3.87;;
67041;SDS011;53949;47.790;18.750;2022-10-26T06:06:12;6.43;;;4.07;;
67041;SDS011;53949;47.790;18.750;2022-10-26T06:09:15;5.57;;;3.55;;
67041;SDS011;53949;47.790;18.750;2022-10-26T06:12:19;4.85;;;3.83;;
67041;SDS011;53949;47.790;18.750;2022-10-26T06:15:22;5.68;;;3.33;;
67041;SDS011;53949;47.790;18.750;2022-10-26T06:18:35;5.65;;;3.55;;
67041;SDS011;53949;47.790;18.750;2022-10-26T06:21:51;3.75;;;3.03;;
67041;SDS011;53949;47.790;18.750;2022-10-26T06:32:00;4.68;;;2.92;;
67041;SDS011;53949;47.790;18.750;2022-10-26T06:38:39;5.75;;;3.95;;
67041;SDS011;53949;47.790;18.750;2022-10-26T06:41:46;4.87;;;3.60;;
67041;SDS011;53949;47.790;18.750;2022-10-26T06:44:50;6.82;;;3.60;;
67041;SDS011;53949;47.790;18.750;2022-10-26T06:47:59;5.07;;;4.06;;
67041;SDS011;53949;47.790;18.750;2022-10-26T06:51:07;4.40;;;3.37;;
67041;SDS011;53949;47.790;18.750;2022-10-26T06:54:19;6.10;;;4.15;;
67041;SDS011;53949;47.790;18.750;2022-10-26T06:57:44;5.10;;;3.92;;
67041;SDS011;53949;47.790;18.750;2022-10-26T07:00:49;4.78;;;3.62;;
67041;SDS011;53949;47.790;18.750;2022-10-26T07:03:54;6.70;;;3.62;;
67041;SDS011;53949;47.790;18.750;2022-10-26T07:06:58;8.30;;;4.00;;
67041;SDS011;53949;47.790;18.750;2022-10-26T07:10:01;5.45;;;3.65;;
67041;SDS011;53949;47.790;18.750;2022-10-26T07:13:05;6.93;;;4.07;;
67041;SDS011;53949;47.790;18.750;2022-10-26T07:16:08;8.18;;;4.55;;
67041;SDS011;53949;47.790;18.750;2022-10-26T07:19:11;10.18;;;4.82;;
67041;SDS011;53949;47.790;18.750;2022-10-26T07:22:14;70.40;;;10.93;;
67041;SDS011;53949;47.790;18.750;2022-10-26T07:25:17;29.45;;;6.43;;
67041;SDS011;53949;47.790;18.750;2022-10-26T07:28:21;8.95;;;5.22;;
67041;SDS011;53949;47.790;18.750;2022-10-26T07:31:24;5.72;;;4.18;;
67041;SDS011;53949;47.790;18.750;2022-10-26T07:34:28;11.45;;;4.82;;
67041;SDS011;53949;47.790;18.750;2022-10-26T07:37:31;19.08;;;6.15;;
67041;SDS011;53949;47.790;18.750;2022-10-26T07:40:34;7.50;;;4.87;;
67041;SDS011;53949;47.790;18.750;2022-10-26T07:43:39;10.20;;;5.90;;
67041;SDS011;53949;47.790;18.750;2022-10-26T07:46:43;10.87;;;6.00;;
67041;SDS011;53949;47.790;18.750;2022-10-26T07:49:47;11.05;;;6.97;;
67041;SDS011;53949;47.790;18.750;2022-10-26T07:52:51;8.45;;;6.05;;
67041;SDS011;53949;47.790;18.750;2022-10-26T07:55:55;8.75;;;5.82;;
67041;SDS011;53949;47.790;18.750;2022-10-26T07:58:59;7.50;;;5.15;;
67041;SDS011;53949;47.790;18.750;2022-10-26T08:02:02;9.13;;;4.93;;
67041;SDS011;53949;47.790;18.750;2022-10-26T08:05:05;8.95;;;5.28;;
67041;SDS011;53949;47.790;18.750;2022-10-26T08:08:09;8.00;;;4.87;;
67041;SDS011;53949;47.790;18.750;2022-10-26T08:11:12;6.30;;;5.20;;
67041;SDS011;53949;47.790;18.750;2022-10-26T08:14:16;6.70;;;5.18;;
67041;SDS011;53949;47.790;18.750;2022-10-26T08:17:20;10.05;;;5.90;;
67041;SDS011;53949;47.790;18.750;2022-10-26T08:20:24;8.93;;;5.73;;
67041;SDS011;53949;47.790;18.750;2022-10-26T08:23:27;10.98;;;5.32;;
67041;SDS011;53949;47.790;18.750;2022-10-26T08:26:30;11.68;;;5.82;;
67041;SDS011;53949;47.790;18.750;2022-10-26T08:29:34;8.55;;;5.93;;
67041;SDS011;53949;47.790;18.750;2022-10-26T08:32:37;11.75;;;6.20;;
67041;SDS011;53949;47.790;18.750;2022-10-26T08:35:41;12.88;;;8.93;;
67041;SDS011;53949;47.790;18.750;2022-10-26T08:38:46;9.98;;;7.12;;
67041;SDS011;53949;47.790;18.750;2022-10-26T08:41:52;13.00;;;6.03;;
67041;SDS011;53949;47.790;18.750;2022-10-26T08:45:08;5.35;;;3.15;;
67041;SDS011;53949;47.790;18.750;2022-10-26T08:48:16;2.62;;;2.40;;
67041;SDS011;53949;47.790;18.750;2022-10-26T08:51:26;4.35;;;2.33;;
67041;SDS011;53949;47.790;18.750;2022-10-26T08:54:34;4.45;;;2.85;;
67041;SDS011;53949;47.790;18.750;2022-10-26T08:57:40;3.67;;;2.60;;
67041;SDS011;53949;47.790;18.750;2022-10-26T09:00:45;3.90;;;3.53;;
67041;SDS011;53949;47.790;18.750;2022-10-26T09:03:50;3.53;;;2.30;;
67041;SDS011;53949;47.790;18.750;2022-10-26T09:10:43;5.62;;;2.90;;
67041;SDS011;53949;47.790;18.750;2022-10-26T09:17:22;5.70;;;3.00;;
67041;SDS011;53949;47.790;18.750;2022-10-26T09:24:16;5.35;;;3.00;;
67041;SDS011;53949;47.790;18.750;2022-10-26T09:27:31;5.85;;;3.53;;
67041;SDS011;53949;47.790;18.750;2022-10-26T09:30:37;4.80;;;3.30;;
67041;SDS011;53949;47.790;18.750;2022-10-26T09:33:40;5.35;;;3.10;;
67041;SDS011;53949;47.790;18.750;2022-10-26T09:36:43;6.20;;;3.37;;
67041;SDS011;53949;47.790;18.750;2022-10-26T09:40:04;5.18;;;3.22;;
67041;SDS011;53949;47.790;18.750;2022-10-26T09:43:35;5.20;;;3.03;;
67041;SDS011;53949;47.790;18.750;2022-10-26T09:46:50;6.35;;;3.42;;
67041;SDS011;53949;47.790;18.750;2022-10-26T09:50:06;21.15;;;4.70;;
67041;SDS011;53949;47.790;18.750;2022-10-26T09:53:12;5.90;;;4.25;;
67041;SDS011;53949;47.790;18.750;2022-10-26T09:56:15;7.28;;;4.07;;
67041;SDS011;53949;47.790;18.750;2022-10-26T09:59:20;9.85;;;4.47;;
67041;SDS011;53949;47.790;18.750;2022-10-26T10:02:30;10.52;;;4.80;;
67041;SDS011;53949;47.790;18.750;2022-10-26T10:05:38;7.55;;;4.90;;
67041;SDS011;53949;47.790;18.750;2022-10-26T10:09:08;5.87;;;4.22;;
67041;SDS011;53949;47.790;18.750;2022-10-26T10:12:17;7.37;;;4.65;;
67041;SDS011;53949;47.790;18.750;2022-10-26T10:15:23;5.43;;;4.25;;
67041;SDS011;53949;47.790;18.750;2022-10-26T10:18:27;6.35;;;4.53;;
67041;SDS011;53949;47.790;18.750;2022-10-26T10:21:34;7.12;;;4.07;;
67041;SDS011;53949;47.790;18.750;2022-10-26T10:24:39;6.10;;;4.57;;
67041;SDS011;53949;47.790;18.750;2022-10-26T10:27:43;6.75;;;4.93;;
67041;SDS011;53949;47.790;18.750;2022-10-26T10:30:56;19.87;;;5.47;;
67041;SDS011;53949;47.790;18.750;2022-10-26T10:34:14;8.32;;;4.70;;
67041;SDS011;53949;47.790;18.750;2022-10-26T10:37:32;6.28;;;4.45;;
67041;SDS011;53949;47.790;18.750;2022-10-26T10:40:40;9.85;;;3.95;;
67041;SDS011;53949;47.790;18.750;2022-10-26T10:44:02;5.85;;;4.10;;
67041;SDS011;53949;47.790;18.750;2022-10-26T10:47:13;6.18;;;3.90;;
67041;SDS011;53949;47.790;18.750;2022-10-26T10:50:20;6.78;;;4.10;;
67041;SDS011;53949;47.790;18.750;2022-10-26T10:56:56;8.77;;;3.87;;
67041;SDS011;53949;47.790;18.750;2022-10-26T11:00:15;7.75;;;4.12;;
67041;SDS011;53949;47.790;18.750;2022-10-26T11:06:32;6.62;;;3.70;;
67041;SDS011;53949;47.790;18.750;2022-10-26T11:09:39;5.32;;;4.00;;
67041;SDS011;53949;47.790;18.750;2022-10-26T11:12:45;5.80;;;3.53;;
67041;SDS011;53949;47.790;18.750;2022-10-26T11:15:54;5.95;;;3.30;;
67041;SDS011;53949;47.790;18.750;2022-10-26T11:19:01;5.62;;;3.33;;
67041;SDS011;53949;47.790;18.750;2022-10-26T11:22:10;4.85;;;2.92;;
67041;SDS011;53949;47.790;18.750;2022-10-26T11:25:17;4.75;;;3.22;;
67041;SDS011;53949;47.790;18.750;2022-10-26T11:28:32;6.78;;;3.17;;
67041;SDS011;53949;47.790;18.750;2022-10-26T11:31:44;4.55;;;2.92;;
67041;SDS011;53949;47.790;18.750;2022-10-26T11:38:37;3.53;;;2.87;;
67041;SDS011;53949;47.790;18.750;2022-10-26T11:42:02;3.47;;;2.80;;
67041;SDS011;53949;47.790;18.750;2022-10-26T11:52:09;5.53;;;3.08;;
67041;SDS011;53949;47.790;18.750;2022-10-26T11:55:33;3.30;;;2.83;;
67041;SDS011;53949;47.790;18.750;2022-10-26T11:58:36;6.22;;;3.00;;
67041;SDS011;53949;47.790;18.750;2022-10-26T12:01:41;4.22;;;3.17;;
67041;SDS011;53949;47.790;18.750;2022-10-26T12:04:46;7.40;;;3.33;;
67041;SDS011;53949;47.790;18.750;2022-10-26T12:07:52;7.82;;;3.00;;
67041;SDS011;53949;47.790;18.750;2022-10-26T12:14:12;6.05;;;3.12;;
67041;SDS011;53949;47.790;18.750;2022-10-26T12:17:32;5.78;;;3.35;;
67041;SDS011;53949;47.790;18.750;2022-10-26T12:23:54;5.28;;;3.10;;
67041;SDS011;53949;47.790;18.750;2022-10-26T12:27:02;3.22;;;2.45;;
67041;SDS011;53949;47.790;18.750;2022-10-26T12:40:36;6.00;;;3.00;;
67041;SDS011;53949;47.790;18.750;2022-10-26T12:43:36;3.50;;;2.40;;
67041;SDS011;53949;47.790;18.750;2022-10-26T12:46:40;4.28;;;2.97;;
67041;SDS011;53949;47.790;18.750;2022-10-26T12:53:09;5.40;;;3.03;;
67041;SDS011;53949;47.790;18.750;2022-10-26T12:56:15;5.62;;;3.12;;
67041;SDS011;53949;47.790;18.750;2022-10-26T12:59:37;5.03;;;2.62;;
67041;SDS011;53949;47.790;18.750;2022-10-26T13:09:54;4.37;;;2.70;;
67041;SDS011;53949;47.790;18.750;2022-10-26T13:13:00;3.87;;;3.20;;
67041;SDS011;53949;47.790;18.750;2022-10-26T13:16:04;4.22;;;3.15;;
67041;SDS011;53949;47.790;18.750;2022-10-26T13:19:22;3.00;;;2.65;;
67041;SDS011;53949;47.790;18.750;2022-10-26T13:22:27;6.62;;;2.70;;
67041;SDS011;53949;47.790;18.750;2022-10-26T13:25:31;3.85;;;1.95;;
67041;SDS011;53949;47.790;18.750;2022-10-26T13:34:44;5.85;;;2.30;;
67041;SDS011;53949;47.790;18.750;2022-10-26T13:37:50;2.67;;;1.80;;
67041;SDS011;53949;47.790;18.750;2022-10-26T13:40:59;3.10;;;2.08;;
67041;SDS011;53949;47.790;18.750;2022-10-26T13:44:15;5.40;;;2.28;;
67041;SDS011;53949;47.790;18.750;2022-10-26T13:50:51;6.12;;;2.12;;
67041;SDS011;53949;47.790;18.750;2022-10-26T13:54:06;2.05;;;1.70;;
67041;SDS011;53949;47.790;18.750;2022-10-26T13:57:21;3.35;;;1.67;;
67041;SDS011;53949;47.790;18.750;2022-10-26T14:00:36;3.42;;;1.87;;
67041;SDS011;53949;47.790;18.750;2022-10-26T14:03:39;5.03;;;2.42;;
67041;SDS011;53949;47.790;18.750;2022-10-26T14:06:48;3.65;;;2.10;;
67041;SDS011;53949;47.790;18.750;2022-10-26T14:09:53;4.75;;;1.98;;
67041;SDS011;53949;47.790;18.750;2022-10-26T14:12:57;7.93;;;3.12;;
67041;SDS011;53949;47.790;18.750;2022-10-26T14:16:01;4.35;;;2.75;;
67041;SDS011;53949;47.790;18.750;2022-10-26T14:19:18;3.85;;;2.28;;
67041;SDS011;53949;47.790;18.750;2022-10-26T14:22:25;5.75;;;2.10;;
67041;SDS011;53949;47.790;18.750;2022-10-26T14:25:29;3.55;;;2.50;;
67041;SDS011;53949;47.790;18.750;2022-10-26T14:28:51;3.12;;;2.53;;
67041;SDS011;53949;47.790;18.750;2022-10-26T14:31:55;3.80;;;2.50;;
67041;SDS011;53949;47.790;18.750;2022-10-26T14:34:59;3.78;;;2.17;;
67041;SDS011;53949;47.790;18.750;2022-10-26T14:38:02;7.43;;;2.75;;
67041;SDS011;53949;47.790;18.750;2022-10-26T14:41:07;3.60;;;2.17;;
67041;SDS011;53949;47.790;18.750;2022-10-26T14:44:20;5.03;;;3.28;;
67041;SDS011;53949;47.790;18.750;2022-10-26T14:47:27;5.37;;;2.85;;
67041;SDS011;53949;47.790;18.750;2022-10-26T14:50:31;2.87;;;2.60;;
67041;SDS011;53949;47.790;18.750;2022-10-26T14:53:38;6.10;;;2.58;;
67041;SDS011;53949;47.790;18.750;2022-10-26T14:56:43;5.30;;;3.08;;
67041;SDS011;53949;47.790;18.750;2022-10-26T14:59:58;4.55;;;3.05;;
67041;SDS011;53949;47.790;18.750;2022-10-26T15:03:02;7.40;;;4.07;;
67041;SDS011;53949;47.790;18.750;2022-10-26T15:09:31;5.93;;;3.50;;
67041;SDS011;53949;47.790;18.750;2022-10-26T15:12:40;7.05;;;5.50;;
67041;SDS011;53949;47.790;18.750;2022-10-26T15:15:43;8.48;;;6.03;;
67041;SDS011;53949;47.790;18.750;2022-10-26T15:18:52;12.15;;;8.43;;
67041;SDS011;53949;47.790;18.750;2022-10-26T15:21:58;14.05;;;9.68;;
67041;SDS011;53949;47.790;18.750;2022-10-26T15:25:03;10.35;;;7.43;;
67041;SDS011;53949;47.790;18.750;2022-10-26T15:28:07;14.95;;;5.95;;
67041;SDS011;53949;47.790;18.750;2022-10-26T15:34:15;7.18;;;3.60;;
67041;SDS011;53949;47.790;18.750;2022-10-26T15:37:19;6.07;;;3.08;;
67041;SDS011;53949;47.790;18.750;2022-10-26T15:40:23;4.78;;;3.15;;
67041;SDS011;53949;47.790;18.750;2022-10-26T15:46:31;7.85;;;3.65;;
67041;SDS011;53949;47.790;18.750;2022-10-26T15:49:35;9.85;;;3.90;;
67041;SDS011;53949;47.790;18.750;2022-10-26T15:52:38;8.90;;;3.20;;
67041;SDS011;53949;47.790;18.750;2022-10-26T15:55:43;5.03;;;3.17;;
67041;SDS011;53949;47.790;18.750;2022-10-26T15:58:46;6.82;;;4.05;;
67041;SDS011;53949;47.790;18.750;2022-10-26T16:01:50;7.80;;;5.15;;
67041;SDS011;53949;47.790;18.750;2022-10-26T16:04:54;16.87;;;8.70;;
67041;SDS011;53949;47.790;18.750;2022-10-26T16:07:58;12.00;;;8.05;;
67041;SDS011;53949;47.790;18.750;2022-10-26T16:11:02;14.27;;;9.23;;
67041;SDS011;53949;47.790;18.750;2022-10-26T16:14:06;15.35;;;9.00;;
67041;SDS011;53949;47.790;18.750;2022-10-26T16:17:09;10.25;;;8.27;;
67041;SDS011;53949;47.790;18.750;2022-10-26T16:20:13;17.10;;;9.82;;
67041;SDS011;53949;47.790;18.750;2022-10-26T16:23:20;12.95;;;9.02;;
67041;SDS011;53949;47.790;18.750;2022-10-26T16:26:23;12.27;;;8.85;;
67041;SDS011;53949;47.790;18.750;2022-10-26T16:29:27;13.25;;;9.43;;
67041;SDS011;53949;47.790;18.750;2022-10-26T16:32:30;14.00;;;8.77;;
67041;SDS011;53949;47.790;18.750;2022-10-26T16:35:34;15.65;;;9.15;;
67041;SDS011;53949;47.790;18.750;2022-10-26T16:38:37;10.90;;;8.02;;
67041;SDS011;53949;47.790;18.750;2022-10-26T16:41:41;10.52;;;8.30;;
67041;SDS011;53949;47.790;18.750;2022-10-26T16:44:44;10.32;;;7.43;;
67041;SDS011;53949;47.790;18.750;2022-10-26T16:47:48;10.00;;;7.53;;
67041;SDS011;53949;47.790;18.750;2022-10-26T16:50:51;11.00;;;8.25;;
67041;SDS011;53949;47.790;18.750;2022-10-26T16:53:55;11.88;;;7.87;;
67041;SDS011;53949;47.790;18.750;2022-10-26T16:56:59;39.58;;;12.82;;
67041;SDS011;53949;47.790;18.750;2022-10-26T17:00:03;25.37;;;10.20;;
67041;SDS011;53949;47.790;18.750;2022-10-26T17:03:08;12.90;;;8.43;;
67041;SDS011;53949;47.790;18.750;2022-10-26T17:06:13;11.73;;;9.18;;
67041;SDS011;53949;47.790;18.750;2022-10-26T17:09:17;18.48;;;10.65;;
67041;SDS011;53949;47.790;18.750;2022-10-26T17:12:21;20.23;;;11.45;;
67041;SDS011;53949;47.790;18.750;2022-10-26T17:15:25;21.65;;;9.90;;
67041;SDS011;53949;47.790;18.750;2022-10-26T17:18:31;14.38;;;11.05;;
67041;SDS011;53949;47.790;18.750;2022-10-26T17:21:35;16.95;;;11.18;;
67041;SDS011;53949;47.790;18.750;2022-10-26T17:24:39;16.40;;;9.68;;
67041;SDS011;53949;47.790;18.750;2022-10-26T17:27:43;15.85;;;9.65;;
67041;SDS011;53949;47.790;18.750;2022-10-26T17:30:49;13.98;;;10.57;;
67041;SDS011;53949;47.790;18.750;2022-10-26T17:33:54;11.20;;;8.77;;
67041;SDS011;53949;47.790;18.750;2022-10-26T17:36:59;10.75;;;8.73;;
67041;SDS011;53949;47.790;18.750;2022-10-26T17:40:03;12.60;;;9.20;;
67041;SDS011;53949;47.790;18.750;2022-10-26T17:43:08;11.20;;;8.95;;
67041;SDS011;53949;47.790;18.750;2022-10-26T17:46:14;12.70;;;8.15;;
67041;SDS011;53949;47.790;18.750;2022-10-26T17:49:23;12.23;;;9.35;;
67041;SDS011;53949;47.790;18.750;2022-10-26T17:52:31;15.80;;;9.70;;
67041;SDS011;53949;47.790;18.750;2022-10-26T17:55:37;14.82;;;10.90;;
67041;SDS011;53949;47.790;18.750;2022-10-26T17:58:41;12.25;;;9.32;;
67041;SDS011;53949;47.790;18.750;2022-10-26T18:01:45;13.45;;;9.05;;
67041;SDS011;53949;47.790;18.750;2022-10-26T18:04:50;13.95;;;9.10;;
67041;SDS011;53949;47.790;18.750;2022-10-26T18:07:54;13.48;;;8.95;;
67041;SDS011;53949;47.790;18.750;2022-10-26T18:10:58;12.87;;;9.53;;
67041;SDS011;53949;47.790;18.750;2022-10-26T18:14:04;13.48;;;9.52;;
67041;SDS011;53949;47.790;18.750;2022-10-26T18:17:07;12.18;;;9.57;;
67041;SDS011;53949;47.790;18.750;2022-10-26T18:20:10;12.90;;;9.20;;
67041;SDS011;53949;47.790;18.750;2022-10-26T18:23:14;12.25;;;9.23;;
67041;SDS011;53949;47.790;18.750;2022-10-26T18:26:23;12.25;;;8.90;;
67041;SDS011;53949;47.790;18.750;2022-10-26T18:29:32;12.02;;;9.05;;
67041;SDS011;53949;47.790;18.750;2022-10-26T18:32:55;13.65;;;10.25;;
67041;SDS011;53949;47.790;18.750;2022-10-26T18:36:03;11.85;;;9.52;;
67041;SDS011;53949;47.790;18.750;2022-10-26T18:39:10;13.75;;;10.20;;
67041;SDS011;53949;47.790;18.750;2022-10-26T18:42:16;11.50;;;9.60;;
67041;SDS011;53949;47.790;18.750;2022-10-26T18:45:19;13.95;;;9.82;;
67041;SDS011;53949;47.790;18.750;2022-10-26T18:48:23;13.68;;;10.38;;
67041;SDS011;53949;47.790;18.750;2022-10-26T18:51:28;13.82;;;10.65;;
67041;SDS011;53949;47.790;18.750;2022-10-26T18:54:35;14.60;;;10.70;;
67041;SDS011;53949;47.790;18.750;2022-10-26T18:57:38;16.92;;;10.23;;
67041;SDS011;53949;47.790;18.750;2022-10-26T19:00:43;14.60;;;10.85;;
67041;SDS011;53949;47.790;18.750;2022-10-26T19:03:51;14.73;;;10.45;;
67041;SDS011;53949;47.790;18.750;2022-10-26T19:07:01;14.63;;;10.87;;
67041;SDS011;53949;47.790;18.750;2022-10-26T19:10:05;14.30;;;10.10;;
67041;SDS011;53949;47.790;18.750;2022-10-26T19:13:10;13.55;;;10.40;;
67041;SDS011;53949;47.790;18.750;2022-10-26T19:16:17;15.52;;;11.25;;
67041;SDS011;53949;47.790;18.750;2022-10-26T19:19:43;15.80;;;11.10;;
67041;SDS011;53949;47.790;18.750;2022-10-26T19:22:50;15.10;;;10.85;;
67041;SDS011;53949;47.790;18.750;2022-10-26T19:25:57;14.32;;;11.23;;
67041;SDS011;53949;47.790;18.750;2022-10-26T19:29:02;14.27;;;10.73;;
67041;SDS011;53949;47.790;18.750;2022-10-26T19:32:10;16.08;;;11.38;;
67041;SDS011;53949;47.790;18.750;2022-10-26T19:35:14;15.82;;;11.10;;
67041;SDS011;53949;47.790;18.750;2022-10-26T19:38:20;19.33;;;12.48;;
67041;SDS011;53949;47.790;18.750;2022-10-26T19:41:26;13.93;;;10.70;;
67041;SDS011;53949;47.790;18.750;2022-10-26T19:44:31;13.35;;;10.35;;
67041;SDS011;53949;47.790;18.750;2022-10-26T19:47:36;16.70;;;11.35;;
67041;SDS011;53949;47.790;18.750;2022-10-26T19:50:46;16.73;;;12.02;;
67041;SDS011;53949;47.790;18.750;2022-10-26T19:53:51;17.62;;;12.68;;
67041;SDS011;53949;47.790;18.750;2022-10-26T19:56:55;16.40;;;11.57;;
67041;SDS011;53949;47.790;18.750;2022-10-26T19:59:59;19.15;;;12.05;;
67041;SDS011;53949;47.790;18.750;2022-10-26T20:03:13;18.58;;;11.45;;
67041;SDS011;53949;47.790;18.750;2022-10-26T20:06:18;17.20;;;11.80;;
67041;SDS011;53949;47.790;18.750;2022-10-26T20:09:22;17.12;;;11.50;;
67041;SDS011;53949;47.790;18.750;2022-10-26T20:12:26;18.15;;;12.05;;
67041;SDS011;53949;47.790;18.750;2022-10-26T20:15:31;16.00;;;11.68;;
67041;SDS011;53949;47.790;18.750;2022-10-26T20:21:44;16.83;;;11.35;;